createdAt,value
2023-03-15T00:01:09.704Z,100522.31
2023-03-15T00:04:12.457Z,100531.47
2023-03-15T00:07:15.253Z,100524.59
2023-03-15T00:10:19.706Z,100538.09
2023-03-15T00:13:22.525Z,100546.13
2023-03-15T00:16:27.168Z,100543.56
2023-03-15T00:19:29.982Z,100546.28
2023-03-15T00:22:32.793Z,100556.13
2023-03-15T00:25:37.358Z,100560.59
2023-03-15T00:28:40.453Z,100564.22
2023-03-15T00:31:43.335Z,100573.19
2023-03-15T00:34:49.178Z,100576.78
2023-03-15T00:37:55.920Z,100589.38
2023-03-15T00:41:00.172Z,100593.00
2023-03-15T00:44:04.286Z,100596.59
2023-03-15T00:47:07.178Z,100589.56
2023-03-15T00:50:11.380Z,100598.41
2023-03-15T00:53:14.214Z,100610.06
2023-03-15T00:56:21.084Z,100618.16
2023-03-15T00:59:23.882Z,100611.09
2023-03-15T01:02:26.702Z,100616.53
2023-03-15T01:05:29.601Z,100622.78
2023-03-15T01:08:32.432Z,100616.63
2023-03-15T01:11:37.326Z,100623.84
2023-03-15T01:14:40.379Z,100631.94
2023-03-15T01:17:44.169Z,100631.06
2023-03-15T01:20:47.112Z,100637.34
2023-03-15T01:23:50.014Z,100645.44
2023-03-15T01:26:54.200Z,100656.94
2023-03-15T01:29:57.048Z,100662.47
2023-03-15T01:33:00.374Z,100669.53
2023-03-15T01:36:05.136Z,100671.41
2023-03-15T01:39:08.865Z,100676.75
2023-03-15T01:42:18.904Z,100675.06
2023-03-15T01:46:13.508Z,100670.66
2023-03-15T01:49:22.842Z,100668.94
2023-03-15T01:52:30.273Z,100684.94
2023-03-15T01:55:41.990Z,100676.19
2023-03-15T01:58:53.655Z,100686.84
2023-03-15T02:01:58.183Z,100692.19
2023-03-15T02:05:09.440Z,100690.44
2023-03-15T02:08:16.847Z,100697.59
2023-03-15T02:11:23.003Z,100695.88
2023-03-15T02:14:28.886Z,100695.88
2023-03-15T02:17:36.953Z,100694.06
2023-03-15T02:20:47.550Z,100700.25
2023-03-15T02:23:57.416Z,100709.22
2023-03-15T02:27:00.387Z,100713.69
2023-03-15T02:30:05.951Z,100713.69
2023-03-15T02:33:15.390Z,100722.56
2023-03-15T02:36:20.633Z,100719.03
2023-03-15T02:39:23.784Z,100723.50
2023-03-15T02:42:27.048Z,100730.66
2023-03-15T02:45:36.316Z,100728.00
2023-03-15T02:48:40.436Z,100731.50
2023-03-15T02:51:43.220Z,100734.16
2023-03-15T02:54:46.125Z,100740.38
2023-03-15T02:57:49.516Z,100749.34
2023-03-15T03:00:55.053Z,100751.91
2023-03-15T03:03:58.424Z,100761.72
2023-03-15T03:07:01.317Z,100761.72
2023-03-15T03:10:13.460Z,100772.41
2023-03-15T03:13:24.054Z,100763.53
2023-03-15T03:16:28.499Z,100767.94
2023-03-15T03:19:31.260Z,100782.19
2023-03-15T03:22:34.483Z,100787.53
2023-03-15T03:25:37.561Z,100788.50
2023-03-15T03:28:41.683Z,100797.19
2023-03-15T03:31:46.293Z,100799.59
2023-03-15T03:34:49.423Z,100799.22
2023-03-15T03:37:55.812Z,100805.00
2023-03-15T03:41:04.480Z,100810.88
2023-03-15T03:44:09.298Z,100807.94
2023-03-15T03:47:15.295Z,100812.97
2023-03-15T03:50:18.584Z,100819.84
2023-03-15T03:53:21.834Z,100830.34
2023-03-15T03:56:24.926Z,100826.75
2023-03-15T03:59:27.832Z,100835.53
2023-03-15T04:02:42.578Z,100831.88
2023-03-15T04:05:46.272Z,100838.09
2023-03-15T04:08:53.325Z,100840.66
2023-03-15T04:12:02.715Z,100843.97
2023-03-15T04:15:06.539Z,100851.72
2023-03-15T04:18:10.845Z,100855.00
2023-03-15T04:21:17.003Z,100859.28
2023-03-15T04:24:21.495Z,100863.59
2023-03-15T04:27:42.838Z,100866.19
2023-03-15T04:31:14.665Z,100874.19
2023-03-15T04:34:33.123Z,100882.06
2023-03-15T04:38:05.595Z,100876.72
2023-03-15T04:41:46.993Z,100880.34
2023-03-15T04:45:01.194Z,100889.13
2023-03-15T04:48:34.971Z,100888.16
2023-03-15T04:51:57.967Z,100885.50
2023-03-15T04:55:21.036Z,100899.63
2023-03-15T04:58:52.383Z,100899.47
2023-03-15T05:02:09.287Z,100906.53
2023-03-15T05:05:24.827Z,100904.81
2023-03-15T05:08:47.043Z,100916.34
2023-03-15T05:12:11.494Z,100928.94
2023-03-15T05:15:46.284Z,100922.75
2023-03-15T05:18:57.139Z,100927.22
2023-03-15T05:22:18.844Z,100930.00
2023-03-15T05:25:29.199Z,100933.59
2023-03-15T05:28:58.342Z,100936.16
2023-03-15T05:32:19.594Z,100938.78
2023-03-15T05:35:37.331Z,100943.06
2023-03-15T05:38:53.411Z,100960.84
2023-03-15T05:42:08.518Z,100967.06
2023-03-15T05:45:34.951Z,100978.69
2023-03-15T05:48:51.021Z,100984.81
2023-03-15T05:52:11.280Z,100994.66
2023-03-15T05:55:30.711Z,100999.03
2023-03-15T05:58:51.923Z,101005.25
2023-03-15T06:02:12.914Z,101021.28
2023-03-15T06:05:23.378Z,101022.22
2023-03-15T06:08:27.252Z,101029.44
2023-03-15T06:11:32.579Z,101033.91
2023-03-15T06:14:37.877Z,101037.56
2023-03-15T06:17:43.621Z,101043.00
2023-03-15T06:20:46.574Z,101046.50
2023-03-15T06:23:50.288Z,101047.38
2023-03-15T06:26:54.813Z,101052.72
2023-03-15T06:29:59.828Z,101062.53
2023-03-15T06:33:03.290Z,101059.97
2023-03-15T06:36:07.865Z,101068.84
2023-03-15T06:39:11.261Z,101070.66
2023-03-15T06:42:14.615Z,101070.66
2023-03-15T06:45:18.909Z,101080.47
2023-03-15T06:48:23.508Z,101082.31
2023-03-15T06:51:26.782Z,101084.00
2023-03-15T06:54:29.638Z,101092.03
2023-03-15T06:57:32.540Z,101090.31
2023-03-15T07:00:36.677Z,101090.22
2023-03-15T07:03:39.509Z,101096.44
2023-03-15T07:06:42.363Z,101098.34
2023-03-15T07:09:45.158Z,101107.19
2023-03-15T07:12:48.134Z,101113.41
2023-03-15T07:15:54.293Z,101109.81
2023-03-15T07:18:59.369Z,101112.47
2023-03-15T07:22:02.107Z,101115.16
2023-03-15T07:25:06.357Z,101115.16
2023-03-15T07:28:09.212Z,101116.75
2023-03-15T07:31:13.629Z,101126.44
2023-03-15T07:34:16.420Z,101129.97
2023-03-15T07:37:19.423Z,101130.78
2023-03-15T07:40:22.243Z,101136.19
2023-03-15T07:43:25.177Z,101139.81
2023-03-15T07:46:40.997Z,101144.34
2023-03-15T07:49:43.847Z,101153.25
2023-03-15T07:52:46.636Z,101153.25
2023-03-15T07:55:50.027Z,101155.84
2023-03-15T07:58:52.772Z,101152.22
2023-03-15T08:01:57.068Z,101157.44
2023-03-15T08:04:59.901Z,101176.91
2023-03-15T08:08:03.136Z,101173.19
2023-03-15T08:11:06.526Z,101180.22
2023-03-15T08:14:09.282Z,101172.22
2023-03-15T08:17:13.393Z,101177.56
2023-03-15T08:20:17.889Z,101176.69
2023-03-15T08:23:21.946Z,101183.88
2023-03-15T08:26:24.777Z,101185.56
2023-03-15T08:29:27.552Z,101193.59
2023-03-15T08:32:31.741Z,101204.28
2023-03-15T08:35:35.194Z,101198.00
2023-03-15T08:38:38.706Z,101210.50
2023-03-15T08:41:43.525Z,101211.28
2023-03-15T08:44:46.364Z,101211.19
2023-03-15T08:47:50.508Z,101216.56
2023-03-15T08:50:53.290Z,101224.41
2023-03-15T08:53:56.139Z,101226.13
2023-03-15T08:56:58.918Z,101230.56
2023-03-15T09:03:06.409Z,101247.53
2023-03-15T09:06:10.246Z,101248.53
2023-03-15T09:09:17.479Z,101250.50
2023-03-15T09:12:20.224Z,101264.75
2023-03-15T09:15:22.984Z,101258.72
2023-03-15T09:18:27.172Z,101268.66
2023-03-15T09:21:29.923Z,101262.63
2023-03-15T09:24:33.106Z,101283.13
2023-03-15T09:27:36.063Z,101282.25
2023-03-15T09:30:40.745Z,101282.25
2023-03-15T09:33:46.625Z,101284.09
2023-03-15T09:36:52.922Z,101280.50
2023-03-15T09:39:55.735Z,101285.06
2023-03-15T09:43:10.278Z,101287.75
2023-03-15T09:46:27.714Z,101301.16
2023-03-15T09:49:42.737Z,101311.00
2023-03-15T09:52:51.551Z,101312.81
2023-03-15T09:55:54.710Z,101320.91
2023-03-15T09:59:01.706Z,101320.91
2023-03-15T10:02:18.902Z,101323.59
2023-03-15T10:05:27.432Z,101327.19
2023-03-15T10:08:30.900Z,101330.81
2023-03-15T10:11:42.951Z,101330.81
2023-03-15T10:15:05.618Z,101336.16
2023-03-15T10:18:31.527Z,101334.50
2023-03-15T10:21:41.633Z,101342.06
2023-03-15T10:24:50.960Z,101348.22
2023-03-15T10:27:57.125Z,101359.25
2023-03-15T10:31:03.166Z,101359.38
2023-03-15T10:34:06.016Z,101352.19
2023-03-15T10:37:11.150Z,101347.63
2023-03-15T10:40:16.367Z,101350.63
2023-03-15T10:43:21.985Z,101352.50
2023-03-15T10:46:25.776Z,101349.03
2023-03-15T10:49:35.244Z,101350.03
2023-03-15T10:52:41.134Z,101352.13
2023-03-15T10:55:45.692Z,101349.88
2023-03-15T10:59:05.568Z,101363.88
2023-03-15T11:02:22.469Z,101363.81
2023-03-15T11:05:31.977Z,101367.34
2023-03-15T11:08:41.243Z,101354.78
2023-03-15T11:11:58.041Z,101361.84
2023-03-15T11:15:04.196Z,101356.50
2023-03-15T11:18:09.457Z,101369.94
2023-03-15T11:21:15.581Z,101366.41
2023-03-15T11:24:25.547Z,101365.47
2023-03-15T11:27:31.876Z,101367.19
2023-03-15T11:30:35.329Z,101363.72
2023-03-15T11:33:44.384Z,101369.16
2023-03-15T11:37:05.306Z,101363.88
2023-03-15T11:40:17.498Z,101374.56
2023-03-15T11:43:25.647Z,101369.31
2023-03-15T11:46:33.238Z,101373.78
2023-03-15T11:49:41.702Z,101375.72
2023-03-15T11:52:49.537Z,101379.34
2023-03-15T11:55:54.847Z,101377.59
2023-03-15T11:59:06.342Z,101373.22
2023-03-15T12:02:38.941Z,101381.22
2023-03-15T12:05:48.968Z,101372.34
2023-03-15T12:08:52.593Z,101375.00
2023-03-15T12:12:00.820Z,101370.53
2023-03-15T12:15:06.383Z,101357.25
2023-03-15T12:18:17.323Z,101371.47
2023-03-15T12:21:23.807Z,101367.00
2023-03-15T12:24:29.285Z,101365.19
2023-03-15T12:27:36.291Z,101372.25
2023-03-15T12:30:41.978Z,101372.25
2023-03-15T12:33:48.096Z,101371.34
2023-03-15T12:36:54.224Z,101379.34
2023-03-15T12:40:04.754Z,101391.75
2023-03-15T12:43:09.356Z,101389.94
2023-03-15T12:46:45.339Z,101390.75
2023-03-15T12:49:48.289Z,101394.28
2023-03-15T12:52:53.584Z,101396.09
2023-03-15T12:56:08.126Z,101387.28
2023-03-15T12:59:21.980Z,101390.03
2023-03-15T13:02:42.740Z,101394.59
2023-03-15T13:06:03.883Z,101384.78
2023-03-15T13:09:19.226Z,101383.91
2023-03-15T13:12:29.316Z,101389.25
2023-03-15T13:15:40.626Z,101391.91
2023-03-15T13:18:53.846Z,101388.28
2023-03-15T13:22:15.104Z,101392.78
2023-03-15T13:25:24.584Z,101397.19
2023-03-15T13:28:37.936Z,101405.28
2023-03-15T13:31:42.332Z,101393.63
2023-03-15T13:34:47.514Z,101396.31
2023-03-15T13:37:50.308Z,101397.03
2023-03-15T13:40:53.576Z,101402.19
2023-03-15T13:43:59.019Z,101408.31
2023-03-15T13:47:03.389Z,101410.97
2023-03-15T13:50:07.829Z,101417.16
2023-03-15T13:53:19.698Z,101446.66
2023-03-15T13:56:37.320Z,101460.97
2023-03-15T13:59:47.979Z,101459.22
2023-03-15T14:02:56.476Z,101469.03
2023-03-15T14:05:59.726Z,101466.44
2023-03-15T14:09:10.638Z,101456.66
2023-03-15T14:12:19.810Z,101459.28
2023-03-15T14:15:26.711Z,101452.22
2023-03-15T14:18:42.540Z,101447.81
2023-03-15T14:21:48.887Z,101454.00
2023-03-15T14:24:53.512Z,101451.19
2023-03-15T14:27:56.425Z,101454.59
2023-03-15T14:31:00.969Z,101450.13
2023-03-15T14:34:16.842Z,101454.59
2023-03-15T14:37:31.757Z,101443.06
2023-03-15T14:40:36.937Z,101448.53
2023-03-15T14:43:39.805Z,101444.97
2023-03-15T14:46:42.714Z,101439.59
2023-03-15T14:49:47.460Z,101437.72
2023-03-15T14:52:52.244Z,101435.81
2023-03-15T14:55:55.019Z,101441.00
2023-03-15T14:58:57.802Z,101431.09
2023-03-15T15:02:02.870Z,101437.16
2023-03-15T15:05:19.155Z,101438.72
2023-03-15T15:08:23.222Z,101430.78
2023-03-15T15:11:26.062Z,101432.59
2023-03-15T15:14:28.856Z,101438.94
2023-03-15T15:17:31.624Z,101430.94
2023-03-15T15:20:35.794Z,101428.34
2023-03-15T15:23:54.950Z,101434.66
2023-03-15T15:27:00.077Z,101443.69
2023-03-15T15:30:02.857Z,101447.44
2023-03-15T15:33:05.816Z,101447.53
2023-03-15T15:36:13.317Z,101451.06
2023-03-15T15:39:22.970Z,101451.06
2023-03-15T15:42:25.815Z,101453.66
2023-03-15T15:45:28.847Z,101456.34
2023-03-15T15:48:31.624Z,101447.53
2023-03-15T15:51:38.560Z,101457.41
2023-03-15T15:54:41.676Z,101461.97
2023-03-15T15:57:46.860Z,101475.38
2023-03-15T16:00:49.637Z,101470.03
2023-03-15T16:03:52.627Z,101472.66
2023-03-15T16:06:59.944Z,101484.22
2023-03-15T16:10:03.733Z,101481.59
2023-03-15T16:13:06.561Z,101482.59
2023-03-15T16:16:14.371Z,101483.47
2023-03-15T16:19:17.172Z,101496.75
2023-03-15T16:22:23.311Z,101502.09
2023-03-15T16:25:33.304Z,101513.66
2023-03-15T16:28:36.148Z,101534.25
2023-03-15T16:31:39.015Z,101549.41
2023-03-15T16:34:41.878Z,101567.31
2023-03-15T16:37:47.143Z,101578.88
2023-03-15T16:40:49.948Z,101569.97
2023-03-15T16:43:52.739Z,101579.75
2023-03-15T16:46:55.505Z,101563.63
2023-03-15T16:49:58.273Z,101569.75
2023-03-15T16:53:05.117Z,101573.19
2023-03-15T16:56:12.760Z,101591.69
2023-03-15T16:59:17.743Z,101587.97
2023-03-15T17:02:22.803Z,101588.72
2023-03-15T17:05:26.733Z,101595.66
2023-03-15T17:08:31.608Z,101603.38
2023-03-15T17:11:34.418Z,101602.47
2023-03-15T17:14:38.640Z,101614.06
2023-03-15T17:17:41.467Z,101610.59
2023-03-15T17:20:44.616Z,101617.75
2023-03-15T17:23:49.538Z,101623.97
2023-03-15T17:26:52.454Z,101630.28
2023-03-15T17:29:55.271Z,101629.53
2023-03-15T17:32:58.500Z,101634.94
2023-03-15T17:36:04.664Z,101647.50
2023-03-15T17:39:15.116Z,101647.50
2023-03-15T17:42:18.925Z,101648.31
2023-03-15T17:45:23.804Z,101652.69
2023-03-15T17:48:26.594Z,101653.56
2023-03-15T17:51:32.253Z,101642.88
2023-03-15T17:54:36.464Z,101653.72
2023-03-15T17:57:42.989Z,101657.38
2023-03-15T18:00:49.461Z,101664.50
2023-03-15T18:03:52.763Z,101663.63
2023-03-15T18:06:55.752Z,101666.38
2023-03-15T18:09:59.950Z,101677.09
2023-03-15T18:13:03.863Z,101679.69
2023-03-15T18:16:07.598Z,101677.97
2023-03-15T18:19:10.703Z,101684.19
2023-03-15T18:22:17.307Z,101690.44
2023-03-15T18:25:23.647Z,101690.38
2023-03-15T18:28:26.480Z,101695.72
2023-03-15T18:31:29.843Z,101695.72
2023-03-15T18:34:32.685Z,101706.41
2023-03-15T18:37:35.451Z,101701.06
2023-03-15T18:40:39.612Z,101709.91
2023-03-15T18:43:42.424Z,101717.94
2023-03-15T18:46:45.264Z,101719.78
2023-03-15T18:49:49.538Z,101712.63
2023-03-15T18:52:54.059Z,101718.84
2023-03-15T18:55:58.164Z,101728.63
2023-03-15T18:59:01.979Z,101725.84
2023-03-15T19:02:04.975Z,101733.66
2023-03-15T19:05:09.149Z,101737.06
2023-03-15T19:08:11.951Z,101736.13
2023-03-15T19:11:16.186Z,101739.59
2023-03-15T19:14:19.302Z,101737.72
2023-03-15T19:17:22.027Z,101734.97
2023-03-15T19:20:24.836Z,101740.34
2023-03-15T19:23:27.675Z,101755.38
2023-03-15T19:26:31.888Z,101758.84
2023-03-15T19:29:34.759Z,101756.19
2023-03-15T19:32:37.623Z,101759.72
2023-03-15T19:35:40.567Z,101754.41
2023-03-15T19:38:43.973Z,101758.97
2023-03-15T19:41:48.076Z,101756.38
2023-03-15T19:44:50.882Z,101769.81
2023-03-15T19:47:53.686Z,101769.94
2023-03-15T19:50:56.552Z,101774.41
2023-03-15T19:53:59.381Z,101778.09
2023-03-15T19:57:03.586Z,101779.03
2023-03-15T20:00:11.909Z,101780.78
2023-03-15T20:03:14.689Z,101783.47
2023-03-15T20:06:17.507Z,101787.06
2023-03-15T20:09:20.770Z,101788.81
2023-03-15T20:12:24.869Z,101792.41
2023-03-15T20:15:29.379Z,101792.47
2023-03-15T20:18:32.628Z,101791.59
2023-03-15T20:21:35.936Z,101803.28
2023-03-15T20:24:40.347Z,101810.31
2023-03-15T20:27:44.869Z,101809.50
2023-03-15T20:30:47.636Z,101811.25
2023-03-15T20:33:51.746Z,101812.88
2023-03-15T20:36:54.655Z,101819.84
2023-03-15T20:39:57.867Z,101819.66
2023-03-15T20:46:05.391Z,101823.16
2023-03-15T20:52:11.173Z,101838.38
2023-03-15T20:55:15.199Z,101834.00
2023-03-15T20:58:19.448Z,101845.56
2023-03-15T21:01:22.481Z,101845.59
2023-03-15T21:04:26.119Z,101846.41
2023-03-15T21:07:28.958Z,101850.03
2023-03-15T21:10:31.817Z,101851.75
2023-03-15T21:13:36.050Z,101850.94
2023-03-15T21:16:38.999Z,101848.28
2023-03-15T21:19:41.861Z,101848.28
2023-03-15T21:22:44.643Z,101848.28
2023-03-15T21:25:54.214Z,101850.03
2023-03-15T21:28:58.360Z,101840.22
2023-03-15T21:32:01.145Z,101845.56
2023-03-15T21:35:05.049Z,101854.44
2023-03-15T21:38:07.804Z,101853.50
2023-03-15T21:41:11.450Z,101857.91
2023-03-15T21:44:15.644Z,101866.81
2023-03-15T21:47:18.429Z,101866.81
2023-03-15T21:50:23.182Z,101868.59
2023-03-15T21:53:26.269Z,101869.47
2023-03-15T21:56:29.285Z,101865.00
2023-03-15T21:59:33.694Z,101872.06
2023-03-15T22:02:36.484Z,101870.34
2023-03-15T22:05:39.264Z,101872.97
2023-03-15T22:08:42.571Z,101876.50
2023-03-15T22:11:45.364Z,101880.09
2023-03-15T22:14:56.866Z,101878.38
2023-03-15T22:18:07.513Z,101884.53
2023-03-15T22:21:10.317Z,101886.31
2023-03-15T22:24:13.162Z,101885.34
2023-03-15T22:27:16.054Z,101885.34
2023-03-15T22:30:20.299Z,101888.00
2023-03-15T22:33:23.268Z,101886.31
2023-03-15T22:36:26.142Z,101900.56
2023-03-15T22:39:28.989Z,101896.16
2023-03-15T22:42:31.800Z,101905.13
2023-03-15T22:45:36.022Z,101906.03
2023-03-15T22:48:38.962Z,101906.19
2023-03-15T22:51:41.779Z,101900.03
2023-03-15T22:54:44.591Z,101910.72
2023-03-15T22:57:47.490Z,101909.78
2023-03-15T23:00:51.864Z,101913.31
2023-03-15T23:03:54.647Z,101917.78
2023-03-15T23:06:58.148Z,101921.28
2023-03-15T23:10:00.957Z,101923.03
2023-03-15T23:13:04.164Z,101927.44
2023-03-15T23:16:08.840Z,101928.38
2023-03-15T23:19:13.443Z,101938.13
2023-03-15T23:22:16.317Z,101937.31
2023-03-15T23:25:22.246Z,101940.00
2023-03-15T23:28:26.296Z,101940.94
2023-03-15T23:31:30.507Z,101944.53
2023-03-15T23:34:33.297Z,101949.88
2023-03-15T23:37:36.409Z,101945.47
2023-03-15T23:40:39.210Z,101952.69
2023-03-15T23:43:42.061Z,101954.56
2023-03-15T23:46:46.522Z,101952.06
2023-03-15T23:49:49.456Z,101953.97
2023-03-15T23:52:53.978Z,101953.25
2023-03-15T23:55:56.737Z,101954.31
2023-03-15T23:58:59.669Z,101960.72
